createdAt,value
2023-02-21T00:00:50.314Z,101934.56
2023-02-21T00:03:35.120Z,101928.22
2023-02-21T00:06:19.835Z,101920.81
2023-02-21T00:09:05.453Z,101924.06
2023-02-21T00:11:50.178Z,101925.13
2023-02-21T00:14:34.975Z,101925.13
2023-02-21T00:17:19.755Z,101924.47
2023-02-21T00:20:04.604Z,101929.03
2023-02-21T00:22:49.519Z,101924.47
2023-02-21T00:25:34.893Z,101926.19
2023-02-21T00:28:20.479Z,101929.84
2023-02-21T00:31:05.360Z,101931.72
2023-02-21T00:33:53.713Z,101929.06
2023-02-21T00:36:38.576Z,101930.78
2023-02-21T00:39:23.489Z,101930.78
2023-02-21T00:42:08.485Z,101926.44
2023-02-21T00:44:53.359Z,101929.13
2023-02-21T00:47:38.250Z,101923.69
2023-02-21T00:50:23.470Z,101930.13
2023-02-21T00:53:08.414Z,101911.97
2023-02-21T00:55:53.138Z,101916.69
2023-02-21T00:58:40.563Z,101918.50
2023-02-21T01:01:25.398Z,101911.44
2023-02-21T01:04:10.221Z,101916.00
2023-02-21T01:06:55.055Z,101916.69
2023-02-21T01:09:39.840Z,101916.84
2023-02-21T01:12:25.158Z,101909.56
2023-02-21T01:15:10.205Z,101915.84
2023-02-21T01:17:55.027Z,101910.47
2023-02-21T01:20:39.943Z,101907.88
2023-02-21T01:23:24.780Z,101915.19
2023-02-21T01:26:09.583Z,101904.50
2023-02-21T01:28:54.416Z,101909.81
2023-02-21T01:31:39.834Z,101916.00
2023-02-21T01:34:25.623Z,101917.78
2023-02-21T01:37:11.023Z,101917.84
2023-02-21T01:39:57.473Z,101919.75
2023-02-21T01:42:42.819Z,101914.47
2023-02-21T01:45:39.925Z,101917.06
2023-02-21T01:48:27.481Z,101913.56
2023-02-21T01:51:14.178Z,101902.69
2023-02-21T01:53:59.630Z,101897.34
2023-02-21T01:56:44.878Z,101885.00
2023-02-21T01:59:30.344Z,101894.72
2023-02-21T02:02:25.103Z,101894.72
2023-02-21T02:05:11.107Z,101894.66
2023-02-21T02:07:56.320Z,101900.91
2023-02-21T02:10:42.337Z,101893.91
2023-02-21T02:13:42.827Z,101897.53
2023-02-21T02:16:18.847Z,101883.50
2023-02-21T02:18:51.112Z,101887.88
2023-02-21T02:21:50.637Z,101893.22
2023-02-21T02:24:40.696Z,101893.94
2023-02-21T02:27:35.092Z,101881.50
2023-02-21T02:30:43.413Z,101884.19
2023-02-21T02:33:15.444Z,101877.75
2023-02-21T02:35:51.638Z,101887.88
2023-02-21T02:38:43.322Z,101872.75
2023-02-21T02:41:20.718Z,101871.84
2023-02-21T02:44:02.135Z,101880.91
2023-02-21T02:46:34.749Z,101876.25
2023-02-21T02:49:08.073Z,101876.16
2023-02-21T02:51:35.795Z,101873.31
2023-02-21T02:54:03.187Z,101864.59
2023-02-21T02:56:30.139Z,101872.75
2023-02-21T02:59:05.777Z,101872.75
2023-02-21T03:01:41.148Z,101861.97
2023-02-21T03:04:29.053Z,101867.34
2023-02-21T03:07:05.677Z,101869.09
2023-02-21T03:09:43.752Z,101870.72
2023-02-21T03:12:22.398Z,101871.59
2023-02-21T03:15:19.153Z,101867.03
2023-02-21T03:17:57.697Z,101870.63
2023-02-21T03:20:27.157Z,101876.78
2023-02-21T03:22:56.847Z,101879.69
2023-02-21T03:25:25.674Z,101880.50
2023-02-21T03:27:55.115Z,101887.94
2023-02-21T03:30:22.775Z,101881.63
2023-02-21T03:32:52.706Z,101878.00
2023-02-21T03:35:20.598Z,101879.63
2023-02-21T03:37:52.774Z,101889.63
2023-02-21T03:40:26.389Z,101891.50
2023-02-21T03:42:56.604Z,101898.88
2023-02-21T03:45:23.424Z,101893.59
2023-02-21T03:47:49.955Z,101885.38
2023-02-21T03:50:16.736Z,101885.59
2023-02-21T03:52:43.215Z,101888.28
2023-02-21T03:55:10.471Z,101887.47
2023-02-21T03:57:37.080Z,101881.16
2023-02-21T04:00:04.307Z,101888.47
2023-02-21T04:02:30.786Z,101871.50
2023-02-21T04:04:57.222Z,101874.19
2023-02-21T04:07:23.747Z,101883.94
2023-02-21T04:09:50.164Z,101883.84
2023-02-21T04:12:16.624Z,101882.06
2023-02-21T04:14:42.994Z,101887.34
2023-02-21T04:17:09.449Z,101882.91
2023-02-21T04:19:35.819Z,101884.84
2023-02-21T04:22:02.379Z,101889.47
2023-02-21T04:24:28.876Z,101886.81
2023-02-21T04:26:55.274Z,101884.19
2023-02-21T04:29:21.684Z,101879.72
2023-02-21T04:31:48.127Z,101884.09
2023-02-21T04:34:14.663Z,101872.38
2023-02-21T04:36:41.095Z,101884.19
2023-02-21T04:39:08.051Z,101878.81
2023-02-21T04:41:34.870Z,101878.81
2023-02-21T04:44:01.513Z,101877.06
2023-02-21T04:46:27.941Z,101871.69
2023-02-21T04:48:54.392Z,101872.44
2023-02-21T04:51:24.441Z,101880.56
2023-02-21T04:53:51.678Z,101876.13
2023-02-21T04:56:21.033Z,101869.09
2023-02-21T04:58:48.268Z,101878.94
2023-02-21T05:01:17.561Z,101865.63
2023-02-21T05:03:44.704Z,101875.53
2023-02-21T05:06:11.168Z,101880.84
2023-02-21T05:08:37.578Z,101881.69
2023-02-21T05:11:04.279Z,101876.28
2023-02-21T05:13:30.716Z,101881.56
2023-02-21T05:15:57.177Z,101879.75
2023-02-21T05:18:26.751Z,101881.56
2023-02-21T05:20:53.202Z,101885.00
2023-02-21T05:23:33.929Z,101879.63
2023-02-21T05:26:01.484Z,101882.25
2023-02-21T05:28:28.503Z,101880.44
2023-02-21T05:30:55.501Z,101886.72
2023-02-21T05:33:22.121Z,101885.66
2023-02-21T05:35:48.935Z,101884.63
2023-02-21T05:38:17.524Z,101889.13
2023-02-21T05:40:44.062Z,101887.34
2023-02-21T05:43:10.899Z,101888.19
2023-02-21T05:45:37.546Z,101889.22
2023-02-21T05:48:04.124Z,101885.59
2023-02-21T05:50:31.254Z,101892.84
2023-02-21T05:52:59.112Z,101889.31
2023-02-21T05:55:26.038Z,101883.94
2023-02-21T05:57:53.424Z,101891.09
2023-02-21T06:00:26.634Z,101888.41
2023-02-21T06:02:53.070Z,101885.81
2023-02-21T06:05:20.715Z,101892.78
2023-02-21T06:07:47.834Z,101889.22
2023-02-21T06:10:15.334Z,101895.63
2023-02-21T06:12:41.847Z,101895.75
2023-02-21T06:15:09.104Z,101891.34
2023-02-21T06:17:38.475Z,101894.03
2023-02-21T06:20:06.576Z,101889.56
2023-02-21T06:22:32.939Z,101895.84
2023-02-21T06:24:59.438Z,101899.34
2023-02-21T06:27:25.887Z,101901.97
2023-02-21T06:29:52.349Z,101909.16
2023-02-21T06:32:18.966Z,101902.09
2023-02-21T06:34:45.467Z,101912.00
2023-02-21T06:37:11.823Z,101903.09
2023-02-21T06:39:39.140Z,101912.97
2023-02-21T06:42:06.446Z,101901.31
2023-02-21T06:44:33.272Z,101903.25
2023-02-21T06:46:59.869Z,101912.03
2023-02-21T06:49:26.349Z,101907.53
2023-02-21T06:51:52.809Z,101902.25
2023-02-21T06:54:19.238Z,101904.13
2023-02-21T06:56:45.728Z,101907.72
2023-02-21T06:59:12.234Z,101905.94
2023-02-21T07:01:38.691Z,101904.94
2023-02-21T07:04:05.291Z,101895.06
2023-02-21T07:06:33.434Z,101905.03
2023-02-21T07:08:59.967Z,101902.19
2023-02-21T07:11:27.048Z,101897.81
2023-02-21T07:13:56.701Z,101903.16
2023-02-21T07:16:23.172Z,101906.72
2023-02-21T07:18:49.694Z,101902.03
2023-02-21T07:21:16.560Z,101905.59
2023-02-21T07:23:44.511Z,101900.09
2023-02-21T07:26:11.193Z,101901.03
2023-02-21T07:28:37.816Z,101901.03
2023-02-21T07:31:04.535Z,101901.03
2023-02-21T07:33:30.934Z,101907.25
2023-02-21T07:35:57.393Z,101906.38
2023-02-21T07:38:29.491Z,101907.13
2023-02-21T07:41:01.165Z,101914.16
2023-02-21T07:43:28.875Z,101911.34
2023-02-21T07:45:55.431Z,101906.91
2023-02-21T07:48:22.290Z,101907.84
2023-02-21T07:50:48.964Z,101906.91
2023-02-21T07:53:16.359Z,101904.03
2023-02-21T07:55:42.926Z,101912.94
2023-02-21T07:58:10.325Z,101911.97
2023-02-21T08:00:39.487Z,101911.97
2023-02-21T08:03:07.065Z,101914.63
2023-02-21T08:05:33.653Z,101913.66
2023-02-21T08:08:00.019Z,101912.75
2023-02-21T08:10:27.721Z,101921.63
2023-02-21T08:12:54.139Z,101922.41
2023-02-21T08:15:20.563Z,101916.00
2023-02-21T08:17:50.445Z,101916.78
2023-02-21T08:20:17.954Z,101914.97
2023-02-21T08:22:44.773Z,101917.53
2023-02-21T08:25:12.633Z,101916.72
2023-02-21T08:27:40.790Z,101912.25
2023-02-21T08:30:09.324Z,101919.31
2023-02-21T08:32:35.880Z,101912.16
2023-02-21T08:35:03.730Z,101914.84
2023-02-21T08:37:33.062Z,101910.41
2023-02-21T08:39:59.696Z,101906.66
2023-02-21T08:42:26.447Z,101901.28
2023-02-21T08:44:52.938Z,101911.91
2023-02-21T08:47:19.377Z,101907.25
2023-02-21T08:49:47.622Z,101910.69
2023-02-21T08:52:16.538Z,101907.88
2023-02-21T08:54:43.721Z,101919.41
2023-02-21T08:57:10.586Z,101916.66
2023-02-21T08:59:42.544Z,101922.78
2023-02-21T09:02:20.593Z,101911.13
2023-02-21T09:04:47.683Z,101914.63
2023-02-21T09:07:15.483Z,101912.94
2023-02-21T09:09:41.982Z,101909.31
2023-02-21T09:12:08.973Z,101908.50
2023-02-21T09:14:36.704Z,101912.75
2023-02-21T09:17:04.560Z,101903.69
2023-02-21T09:19:31.171Z,101905.38
2023-02-21T09:21:59.724Z,101893.75
2023-02-21T09:24:27.646Z,101888.22
2023-02-21T09:27:04.970Z,101888.09
2023-02-21T09:29:44.872Z,101892.38
2023-02-21T09:32:12.305Z,101895.97
2023-02-21T09:34:38.781Z,101897.00
2023-02-21T09:37:06.187Z,101896.22
2023-02-21T09:39:32.562Z,101890.78
2023-02-21T09:41:59.078Z,101895.22
2023-02-21T09:44:28.726Z,101883.56
2023-02-21T09:46:59.932Z,101888.91
2023-02-21T09:49:31.153Z,101887.84
2023-02-21T09:51:59.819Z,101879.63
2023-02-21T09:54:46.574Z,101874.19
2023-02-21T09:57:18.026Z,101875.88
2023-02-21T09:59:45.806Z,101881.16
2023-02-21T10:02:16.026Z,101885.63
2023-02-21T10:04:45.309Z,101885.69
2023-02-21T10:07:43.848Z,101883.09
2023-02-21T10:10:37.246Z,101883.09
2023-02-21T10:13:16.865Z,101885.84
2023-02-21T10:15:55.475Z,101886.66
2023-02-21T10:18:45.057Z,101894.63
2023-02-21T10:21:25.701Z,101884.72
2023-02-21T10:23:57.730Z,101903.53
2023-02-21T10:26:29.433Z,101897.31
2023-02-21T10:28:57.199Z,101896.41
2023-02-21T10:31:39.603Z,101894.38
2023-02-21T10:34:23.040Z,101899.75
2023-02-21T10:36:50.355Z,101894.25
2023-02-21T10:39:25.081Z,101898.84
2023-02-21T10:41:52.674Z,101898.69
2023-02-21T10:44:25.409Z,101892.38
2023-02-21T10:47:41.760Z,101885.22
2023-02-21T10:50:12.040Z,101892.22
2023-02-21T10:52:50.157Z,101884.03
2023-02-21T10:55:31.680Z,101901.00
2023-02-21T10:58:07.510Z,101904.31
2023-02-21T11:00:37.851Z,101895.34
2023-02-21T11:03:32.275Z,101895.34
2023-02-21T11:05:58.817Z,101892.28
2023-02-21T11:08:42.159Z,101892.19
2023-02-21T11:11:09.643Z,101889.59
2023-02-21T11:13:36.650Z,101887.69
2023-02-21T11:16:08.422Z,101895.84
2023-02-21T11:18:34.865Z,101892.00
2023-02-21T11:21:14.137Z,101899.84
2023-02-21T11:24:02.754Z,101888.50
2023-02-21T11:26:30.747Z,101878.38
2023-02-21T11:29:10.541Z,101877.13
2023-02-21T11:31:37.449Z,101875.56
2023-02-21T11:34:10.336Z,101884.56
2023-02-21T11:36:40.429Z,101883.59
2023-02-21T11:39:19.052Z,101880.91
2023-02-21T11:41:56.227Z,101888.19
2023-02-21T11:44:35.115Z,101877.44
2023-02-21T11:47:29.137Z,101865.44
2023-02-21T11:50:10.431Z,101873.53
2023-02-21T11:52:48.926Z,101862.56
2023-02-21T11:55:21.965Z,101868.00
2023-02-21T11:58:06.921Z,101861.66
2023-02-21T12:01:05.707Z,101870.09
2023-02-21T12:04:04.495Z,101872.03
2023-02-21T12:07:11.070Z,101859.03
2023-02-21T12:09:57.734Z,101859.91
2023-02-21T12:12:39.165Z,101853.22
2023-02-21T12:15:21.666Z,101854.53
2023-02-21T12:18:03.447Z,101846.38
2023-02-21T12:20:48.338Z,101841.66
2023-02-21T12:23:36.047Z,101848.25
2023-02-21T12:26:34.961Z,101850.13
2023-02-21T12:29:16.477Z,101844.94
2023-02-21T12:32:24.162Z,101840.31
2023-02-21T12:35:17.029Z,101836.00
2023-02-21T12:38:10.488Z,101836.78
2023-02-21T12:41:03.041Z,101835.94
2023-02-21T12:43:47.700Z,101844.19
2023-02-21T12:46:31.212Z,101843.31
2023-02-21T12:49:08.810Z,101840.75
2023-02-21T12:51:41.296Z,101826.63
2023-02-21T12:54:16.041Z,101832.13
2023-02-21T12:56:46.968Z,101827.69
2023-02-21T12:59:43.046Z,101837.78
2023-02-21T13:02:35.069Z,101834.47
2023-02-21T13:05:13.722Z,101830.97
2023-02-21T13:08:20.760Z,101823.13
2023-02-21T13:10:58.557Z,101835.09
2023-02-21T13:13:29.454Z,101830.72
2023-02-21T13:15:57.647Z,101828.00
2023-02-21T13:18:32.774Z,101822.47
2023-02-21T13:21:09.051Z,101827.00
2023-02-21T13:23:55.672Z,101828.19
2023-02-21T13:26:40.036Z,101830.06
2023-02-21T13:29:19.151Z,101822.19
2023-02-21T13:31:46.090Z,101816.75
2023-02-21T13:34:19.271Z,101824.81
2023-02-21T13:36:47.609Z,101820.31
2023-02-21T13:39:31.865Z,101815.94
2023-02-21T13:42:04.162Z,101820.56
2023-02-21T13:44:34.596Z,101812.75
2023-02-21T13:47:03.696Z,101823.50
2023-02-21T13:49:39.651Z,101811.78
2023-02-21T13:52:24.327Z,101813.75
2023-02-21T13:55:15.611Z,101812.09
2023-02-21T13:57:54.047Z,101819.56
2023-02-21T14:00:29.555Z,101804.28
2023-02-21T14:03:09.574Z,101799.84
2023-02-21T14:05:49.904Z,101803.72
2023-02-21T14:08:38.059Z,101800.16
2023-02-21T14:11:07.198Z,101802.28
2023-02-21T14:13:37.953Z,101796.19
2023-02-21T14:16:13.565Z,101798.00
2023-02-21T14:18:44.514Z,101801.72
2023-02-21T14:21:17.069Z,101797.31
2023-02-21T14:23:48.179Z,101794.63
2023-02-21T14:26:45.792Z,101797.19
2023-02-21T14:29:13.977Z,101799.84
2023-02-21T14:31:46.329Z,101799.84
2023-02-21T14:34:14.484Z,101800.91
2023-02-21T14:36:42.931Z,101800.09
2023-02-21T14:39:09.562Z,101788.50
2023-02-21T14:42:14.971Z,101795.63
2023-02-21T14:44:55.551Z,101795.66
2023-02-21T14:47:40.840Z,101795.56
2023-02-21T14:50:28.651Z,101796.44
2023-02-21T14:53:01.177Z,101786.63
2023-02-21T14:55:47.906Z,101796.72
2023-02-21T14:58:17.292Z,101787.97
2023-02-21T15:01:25.501Z,101787.31
2023-02-21T15:04:04.691Z,101789.34
2023-02-21T15:06:33.128Z,101796.59
2023-02-21T15:09:12.769Z,101790.31
2023-02-21T15:11:40.816Z,101792.19
2023-02-21T15:14:24.522Z,101786.88
2023-02-21T15:17:12.069Z,101787.84
2023-02-21T15:19:39.476Z,101791.44
2023-02-21T15:22:12.077Z,101793.19
2023-02-21T15:24:38.594Z,101789.59
2023-02-21T15:27:12.726Z,101787.09
2023-02-21T15:29:39.973Z,101788.09
2023-02-21T15:32:07.348Z,101784.63
2023-02-21T15:34:42.675Z,101782.13
2023-02-21T15:37:31.417Z,101777.72
2023-02-21T15:40:18.482Z,101775.94
2023-02-21T15:42:47.862Z,101777.75
2023-02-21T15:45:23.263Z,101779.72
2023-02-21T15:47:50.668Z,101772.66
2023-02-21T15:50:43.737Z,101771.84
2023-02-21T15:53:12.268Z,101769.22
2023-02-21T15:55:39.478Z,101766.56
2023-02-21T15:58:05.871Z,101772.84
2023-02-21T16:00:35.100Z,101779.19
2023-02-21T16:03:29.315Z,101763.25
2023-02-21T16:06:27.880Z,101766.84
2023-02-21T16:09:19.181Z,101757.94
2023-02-21T16:12:11.925Z,101766.03
2023-02-21T16:14:45.549Z,101770.59
2023-02-21T16:17:35.547Z,101769.69
2023-02-21T16:20:25.860Z,101773.28
2023-02-21T16:23:25.980Z,101763.44
2023-02-21T16:26:12.018Z,101762.75
2023-02-21T16:28:40.521Z,101761.91
2023-02-21T16:31:23.808Z,101765.69
2023-02-21T16:33:51.078Z,101762.13
2023-02-21T16:36:32.009Z,101759.47
2023-02-21T16:38:59.170Z,101757.84
2023-02-21T16:41:26.136Z,101758.88
2023-02-21T16:43:52.762Z,101761.53
2023-02-21T16:46:30.138Z,101760.56
2023-02-21T16:48:58.840Z,101757.06
2023-02-21T16:51:25.432Z,101756.31
2023-02-21T16:53:52.015Z,101756.44
2023-02-21T16:56:18.512Z,101750.22
2023-02-21T16:58:50.392Z,101753.78
2023-02-21T17:01:32.378Z,101751.28
2023-02-21T17:03:59.024Z,101754.00
2023-02-21T17:06:27.467Z,101760.25
2023-02-21T17:08:53.850Z,101753.19
2023-02-21T17:11:20.574Z,101753.19
2023-02-21T17:13:46.975Z,101752.38
2023-02-21T17:16:13.602Z,101752.38
2023-02-21T17:18:40.121Z,101751.41
2023-02-21T17:21:06.543Z,101750.56
2023-02-21T17:23:32.944Z,101752.38
2023-02-21T17:25:59.402Z,101753.38
2023-02-21T17:28:25.795Z,101749.78
2023-02-21T17:30:52.374Z,101751.59
2023-02-21T17:33:18.825Z,101755.28
2023-02-21T17:35:45.277Z,101752.63
2023-02-21T17:38:11.900Z,101751.72
2023-02-21T17:40:38.394Z,101751.72
2023-02-21T17:43:08.818Z,101746.44
2023-02-21T17:45:38.722Z,101742.94
2023-02-21T17:48:06.106Z,101756.41
2023-02-21T17:50:32.732Z,101748.41
2023-02-21T17:52:59.186Z,101751.91
2023-02-21T17:55:26.199Z,101746.53
2023-02-21T17:57:53.155Z,101742.16
2023-02-21T18:00:24.668Z,101753.03
2023-02-21T18:02:55.583Z,101741.50
2023-02-21T18:05:22.618Z,101741.47
2023-02-21T18:07:53.705Z,101737.00
2023-02-21T18:10:22.752Z,101737.00
2023-02-21T18:12:51.334Z,101737.06
2023-02-21T18:15:20.895Z,101732.50
2023-02-21T18:17:47.457Z,101735.16
2023-02-21T18:20:15.742Z,101735.16
2023-02-21T18:22:42.865Z,101731.59
2023-02-21T18:25:09.528Z,101736.13
2023-02-21T18:27:36.760Z,101737.00
2023-02-21T18:30:04.091Z,101730.75
2023-02-21T18:32:30.601Z,101733.41
2023-02-21T18:34:57.345Z,101731.63
2023-02-21T18:37:23.838Z,101724.53
2023-02-21T18:39:54.049Z,101730.75
2023-02-21T18:42:22.606Z,101731.72
2023-02-21T18:44:49.456Z,101730.97
2023-02-21T18:47:17.049Z,101728.28
2023-02-21T18:49:44.148Z,101730.09
2023-02-21T18:52:14.414Z,101722.09
2023-02-21T18:54:49.528Z,101728.34
2023-02-21T18:57:21.268Z,101729.22
2023-02-21T18:59:48.000Z,101730.09
2023-02-21T19:02:16.471Z,101724.78
2023-02-21T19:04:43.888Z,101733.72
2023-02-21T19:07:13.448Z,101726.53
2023-02-21T19:09:40.256Z,101723.03
2023-02-21T19:12:10.122Z,101718.53
2023-02-21T19:14:37.266Z,101721.19
2023-02-21T19:17:06.970Z,101722.09
2023-02-21T19:19:34.219Z,101713.22
2023-02-21T19:22:00.895Z,101715.00
2023-02-21T19:24:27.560Z,101715.91
2023-02-21T19:26:54.117Z,101715.09
2023-02-21T19:29:21.136Z,101706.09
2023-02-21T19:31:48.709Z,101711.50
2023-02-21T19:34:15.227Z,101707.91
2023-02-21T19:36:41.990Z,101713.31
2023-02-21T19:39:09.291Z,101707.09
2023-02-21T19:41:38.551Z,101710.63
2023-02-21T19:44:05.198Z,101710.63
2023-02-21T19:46:32.256Z,101716.94
2023-02-21T19:48:59.662Z,101712.50
2023-02-21T19:51:28.358Z,101712.50
2023-02-21T19:53:58.777Z,101716.94
2023-02-21T19:56:26.491Z,101709.81
2023-02-21T19:58:53.487Z,101713.41
2023-02-21T20:01:21.489Z,101712.59
2023-02-21T20:03:49.537Z,101724.28
2023-02-21T20:06:16.692Z,101711.69
2023-02-21T20:08:48.343Z,101710.81
2023-02-21T20:11:16.986Z,101708.94
2023-02-21T20:13:43.818Z,101713.41
2023-02-21T20:16:11.214Z,101710.81
2023-02-21T20:18:37.668Z,101715.28
2023-02-21T20:21:04.326Z,101707.22
2023-02-21T20:23:30.763Z,101709.91
2023-02-21T20:25:57.204Z,101706.41
2023-02-21T20:28:23.694Z,101701.94
2023-02-21T20:30:50.172Z,101709.09
2023-02-21T20:33:16.764Z,101701.03
2023-02-21T20:35:43.930Z,101703.78
2023-02-21T20:38:10.785Z,101714.63
2023-02-21T20:40:37.387Z,101704.00
2023-02-21T20:43:03.855Z,101704.88
2023-02-21T20:45:30.191Z,101697.72
2023-02-21T20:47:56.630Z,101696.00
2023-02-21T20:50:24.071Z,101691.53
2023-02-21T20:52:50.976Z,101693.34
2023-02-21T20:55:19.399Z,101691.59
2023-02-21T20:57:45.927Z,101691.59
2023-02-21T21:00:14.823Z,101690.69
2023-02-21T21:02:42.525Z,101688.03
2023-02-21T21:05:13.767Z,101691.66
2023-02-21T21:07:41.549Z,101691.69
2023-02-21T21:10:11.376Z,101696.19
2023-02-21T21:12:38.116Z,101689.03
2023-02-21T21:15:05.676Z,101691.78
2023-02-21T21:17:32.148Z,101687.31
2023-02-21T21:19:58.629Z,101685.50
2023-02-21T21:22:30.213Z,101686.34
2023-02-21T21:24:56.783Z,101683.66
2023-02-21T21:27:23.611Z,101688.13
2023-02-21T21:29:50.093Z,101687.19
2023-02-21T21:32:19.686Z,101685.44
2023-02-21T21:34:51.006Z,101685.44
2023-02-21T21:37:20.231Z,101681.84
2023-02-21T21:39:50.066Z,101676.44
2023-02-21T21:42:17.348Z,101672.91
2023-02-21T21:44:53.613Z,101673.75
2023-02-21T21:47:25.055Z,101679.19
2023-02-21T21:49:52.200Z,101680.06
2023-02-21T21:52:21.197Z,101674.72
2023-02-21T21:54:47.780Z,101677.41
2023-02-21T21:57:18.865Z,101669.38
2023-02-21T21:59:49.578Z,101670.25
2023-02-21T22:02:16.106Z,101664.84
2023-02-21T22:04:42.771Z,101657.66
2023-02-21T22:07:10.136Z,101660.34
2023-02-21T22:09:36.592Z,101659.53
2023-02-21T22:12:04.794Z,101649.72
2023-02-21T22:14:31.656Z,101647.97
2023-02-21T22:16:58.025Z,101646.97
2023-02-21T22:19:26.113Z,101639.81
2023-02-21T22:21:56.887Z,101636.22
2023-02-21T22:24:24.321Z,101626.41
2023-02-21T22:26:54.932Z,101627.31
2023-02-21T22:29:22.506Z,101621.91
2023-02-21T22:31:51.222Z,101615.66
2023-02-21T22:34:23.256Z,101620.09
2023-02-21T22:36:55.497Z,101608.47
2023-02-21T22:39:23.575Z,101612.97
2023-02-21T22:41:50.806Z,101610.31
2023-02-21T22:44:18.098Z,101593.28
2023-02-21T22:46:47.253Z,101590.63
2023-02-21T22:49:17.563Z,101585.25
2023-02-21T22:51:44.122Z,101583.50
2023-02-21T22:54:14.502Z,101584.38
2023-02-21T22:56:50.659Z,101580.81
2023-02-21T22:59:19.265Z,101585.25
2023-02-21T23:01:45.790Z,101574.59
2023-02-21T23:04:16.095Z,101580.88
2023-02-21T23:06:43.651Z,101571.78
2023-02-21T23:09:12.279Z,101568.22
2023-02-21T23:11:41.630Z,101562.00
2023-02-21T23:14:09.294Z,101561.09
2023-02-21T23:16:35.883Z,101558.41
2023-02-21T23:19:02.365Z,101558.41
2023-02-21T23:21:30.434Z,101556.63
2023-02-21T23:23:58.200Z,101556.53
2023-02-21T23:26:25.562Z,101556.53
2023-02-21T23:28:52.440Z,101549.44
2023-02-21T23:31:21.167Z,101548.50
2023-02-21T23:33:53.334Z,101551.16
2023-02-21T23:36:22.874Z,101542.25
2023-02-21T23:38:50.593Z,101541.28
2023-02-21T23:41:17.953Z,101544.06
2023-02-21T23:43:48.083Z,101534.19
2023-02-21T23:46:23.599Z,101540.44
2023-02-21T23:48:53.538Z,101533.31
2023-02-21T23:51:26.336Z,101528.78
2023-02-21T23:53:52.698Z,101523.34
2023-02-21T23:56:19.095Z,101526.91
2023-02-21T23:58:45.602Z,101533.19
